createdAt,value
2019-02-18T00:01:04.602Z,2.67
2019-02-18T00:03:31.663Z,2.74
2019-02-18T00:05:58.710Z,2.79
2019-02-18T00:08:25.803Z,2.75
2019-02-18T00:10:52.931Z,2.72
2019-02-18T00:13:20.623Z,2.73
2019-02-18T00:15:47.685Z,2.70
2019-02-18T00:18:14.774Z,2.77
2019-02-18T00:20:41.865Z,2.80
2019-02-18T00:23:08.933Z,2.70
2019-02-18T00:25:35.985Z,2.67
2019-02-18T00:28:03.047Z,2.67
2019-02-18T00:30:30.113Z,2.72
2019-02-18T00:32:57.208Z,2.74
2019-02-18T00:35:24.267Z,2.70
2019-02-18T00:37:51.328Z,2.61
2019-02-18T00:40:18.400Z,2.57
2019-02-18T00:42:45.466Z,2.74
2019-02-18T00:45:12.613Z,2.66
2019-02-18T00:47:39.722Z,2.53
2019-02-18T00:50:10.243Z,2.43
2019-02-18T00:52:37.320Z,2.43
2019-02-18T00:55:04.844Z,2.35
2019-02-18T00:57:31.952Z,2.28
2019-02-18T00:59:59.066Z,2.24
2019-02-18T01:02:26.120Z,2.13
2019-02-18T01:04:53.223Z,2.06
2019-02-18T01:07:20.285Z,2.09
2019-02-18T01:09:47.347Z,2.12
2019-02-18T01:12:14.444Z,2.07
2019-02-18T01:14:41.581Z,2.05
2019-02-18T01:17:08.689Z,2.07
2019-02-18T01:19:35.751Z,2.06
2019-02-18T01:22:04.602Z,2.10
2019-02-18T01:24:31.704Z,2.08
2019-02-18T01:26:58.807Z,2.10
2019-02-18T01:29:25.993Z,2.31
2019-02-18T01:31:53.080Z,2.34
2019-02-18T01:34:20.150Z,2.24
2019-02-18T01:36:47.214Z,2.11
2019-02-18T01:39:14.325Z,2.11
2019-02-18T01:41:41.390Z,2.09
2019-02-18T01:44:08.551Z,1.97
2019-02-18T01:46:35.657Z,1.92
2019-02-18T01:49:02.773Z,1.87
2019-02-18T01:51:29.815Z,1.81
2019-02-18T01:53:56.895Z,1.79
2019-02-18T01:56:24.024Z,1.81
2019-02-18T01:58:51.075Z,1.84
2019-02-18T02:01:18.189Z,1.79
2019-02-18T02:03:45.238Z,1.71
2019-02-18T02:06:12.301Z,1.67
2019-02-18T02:08:39.643Z,1.75
2019-02-18T02:11:06.743Z,1.72
2019-02-18T02:13:34.957Z,1.65
2019-02-18T02:16:04.521Z,1.72
2019-02-18T02:18:31.619Z,1.81
2019-02-18T02:20:58.689Z,1.89
2019-02-18T02:23:25.718Z,1.91
2019-02-18T02:25:52.821Z,1.89
2019-02-18T02:28:19.867Z,1.83
2019-02-18T02:30:46.911Z,1.78
2019-02-18T02:33:14.008Z,1.71
2019-02-18T02:35:41.060Z,1.68
2019-02-18T02:38:08.361Z,1.67
2019-02-18T02:40:35.518Z,1.68
2019-02-18T02:43:02.684Z,1.66
2019-02-18T02:45:29.738Z,1.69
2019-02-18T02:47:56.829Z,1.65
2019-02-18T02:50:23.916Z,1.67
2019-02-18T02:52:50.958Z,1.65
2019-02-18T02:55:18.035Z,1.65
2019-02-18T02:57:45.104Z,1.70
2019-02-18T03:00:12.202Z,1.74
2019-02-18T03:02:39.273Z,1.75
2019-02-18T03:05:06.333Z,1.86
2019-02-18T03:07:33.386Z,1.91
2019-02-18T03:10:00.510Z,1.89
2019-02-18T03:12:27.603Z,1.88
2019-02-18T03:14:54.701Z,1.82
2019-02-18T03:17:28.819Z,1.87
2019-02-18T03:19:55.896Z,1.97
2019-02-18T03:22:23.271Z,2.02
2019-02-18T03:25:15.603Z,2.08
2019-02-18T03:27:42.954Z,2.11
2019-02-18T03:30:46.518Z,2.07
2019-02-18T03:33:16.051Z,2.00
2019-02-18T03:35:43.106Z,1.93
2019-02-18T03:38:11.749Z,1.94
2019-02-18T03:40:38.846Z,2.00
2019-02-18T03:43:06.006Z,1.99
2019-02-18T03:45:33.085Z,2.00
2019-02-18T03:48:00.240Z,1.98
2019-02-18T03:50:27.328Z,1.99
2019-02-18T03:52:54.497Z,1.97
2019-02-18T03:55:21.604Z,1.96
2019-02-18T03:57:48.973Z,1.93
2019-02-18T04:00:16.153Z,1.92
2019-02-18T04:02:43.380Z,1.79
2019-02-18T04:05:10.524Z,1.70
2019-02-18T04:07:37.589Z,1.61
2019-02-18T04:10:04.833Z,1.56
2019-02-18T04:12:31.912Z,1.52
2019-02-18T04:14:59.395Z,1.52
2019-02-18T04:17:26.480Z,1.47
2019-02-18T04:19:53.596Z,1.48
2019-02-18T04:22:20.650Z,1.43
2019-02-18T04:24:47.738Z,1.43
2019-02-18T04:27:14.822Z,1.44
2019-02-18T04:29:41.874Z,1.45
2019-02-18T04:32:08.997Z,1.39
2019-02-18T04:34:36.072Z,1.32
2019-02-18T04:37:03.136Z,1.31
2019-02-18T04:39:30.237Z,1.27
2019-02-18T04:41:57.398Z,1.26
2019-02-18T04:44:24.445Z,1.25
2019-02-18T04:46:51.570Z,1.21
2019-02-18T04:49:18.623Z,1.09
2019-02-18T04:51:45.830Z,1.09
2019-02-18T04:54:12.924Z,1.01
2019-02-18T04:56:40.013Z,0.95
2019-02-18T04:59:07.044Z,0.92
2019-02-18T05:01:34.177Z,0.89
2019-02-18T05:04:01.232Z,0.90
2019-02-18T05:06:28.293Z,0.91
2019-02-18T05:09:05.056Z,0.91
2019-02-18T05:12:00.930Z,0.93
2019-02-18T05:14:28.050Z,0.93
2019-02-18T05:16:55.119Z,0.85
2019-02-18T05:19:23.021Z,0.78
2019-02-18T05:21:50.383Z,0.71
2019-02-18T05:24:17.436Z,0.69
2019-02-18T05:26:44.544Z,0.64
2019-02-18T05:29:11.640Z,0.62
2019-02-18T05:31:38.688Z,0.61
2019-02-18T05:34:05.765Z,0.60
2019-02-18T05:36:32.857Z,0.61
2019-02-18T05:38:59.944Z,0.68
2019-02-18T05:41:26.997Z,0.67
2019-02-18T05:44:11.610Z,0.67
2019-02-18T05:46:38.833Z,0.62
2019-02-18T05:49:05.994Z,0.62
2019-02-18T05:51:33.149Z,0.70
2019-02-18T05:54:00.193Z,0.78
2019-02-18T05:56:27.273Z,0.79
2019-02-18T05:58:54.363Z,0.80
2019-02-18T06:01:21.466Z,0.83
2019-02-18T06:03:48.516Z,0.84
2019-02-18T06:06:15.575Z,0.80
2019-02-18T06:08:42.660Z,0.74
2019-02-18T06:11:11.580Z,0.72
2019-02-18T06:13:38.713Z,0.69
2019-02-18T06:16:24.150Z,0.62
2019-02-18T06:18:51.296Z,0.57
2019-02-18T06:21:18.334Z,0.50
2019-02-18T06:23:45.460Z,0.50
2019-02-18T06:26:12.558Z,0.58
2019-02-18T06:28:39.727Z,0.73
2019-02-18T06:31:07.279Z,0.75
2019-02-18T06:33:34.342Z,0.66
2019-02-18T06:36:01.416Z,0.57
2019-02-18T06:38:28.675Z,0.56
2019-02-18T06:40:55.827Z,0.56
2019-02-18T06:43:41.482Z,0.55
2019-02-18T06:46:24.662Z,0.53
2019-02-18T06:48:55.820Z,0.47
2019-02-18T06:51:22.864Z,0.47
2019-02-18T06:53:49.931Z,0.47
2019-02-18T06:56:19.359Z,0.42
2019-02-18T06:59:34.835Z,0.40
2019-02-18T07:02:21.564Z,0.40
2019-02-18T07:05:08.214Z,0.37
2019-02-18T07:07:55.142Z,0.37
2019-02-18T07:10:38.183Z,0.37
2019-02-18T07:13:05.340Z,0.36
2019-02-18T07:15:32.384Z,0.40
2019-02-18T07:17:59.434Z,0.45
2019-02-18T07:20:26.539Z,0.47
2019-02-18T07:22:53.629Z,0.49
2019-02-18T07:25:20.719Z,0.50
2019-02-18T07:27:47.811Z,0.56
2019-02-18T07:30:15.519Z,0.57
2019-02-18T07:32:42.591Z,0.57
2019-02-18T07:35:09.694Z,0.60
2019-02-18T07:37:36.795Z,0.63
2019-02-18T07:40:05.135Z,0.71
2019-02-18T07:42:32.237Z,0.72
2019-02-18T07:44:59.410Z,0.81
2019-02-18T07:47:26.559Z,0.91
2019-02-18T07:49:53.644Z,1.00
2019-02-18T07:52:20.722Z,1.13
2019-02-18T07:54:47.845Z,1.23
2019-02-18T07:57:14.934Z,1.34
2019-02-18T07:59:42.880Z,1.43
2019-02-18T08:02:10.032Z,1.68
2019-02-18T08:04:37.111Z,1.84
2019-02-18T08:07:04.166Z,1.95
2019-02-18T08:09:31.202Z,2.04
2019-02-18T08:11:58.327Z,2.15
2019-02-18T08:14:25.453Z,2.31
2019-02-18T08:16:52.509Z,2.45
2019-02-18T08:19:19.570Z,2.63
2019-02-18T08:21:46.611Z,2.76
2019-02-18T08:24:13.687Z,2.88
2019-02-18T08:26:40.980Z,3.03
2019-02-18T08:29:08.055Z,3.16
2019-02-18T08:31:35.290Z,3.30
2019-02-18T08:34:02.354Z,3.35
2019-02-18T08:36:29.424Z,3.49
2019-02-18T08:38:56.474Z,3.58
2019-02-18T08:41:23.611Z,3.70
2019-02-18T08:43:50.706Z,3.84
2019-02-18T08:46:17.782Z,3.99
2019-02-18T08:48:46.854Z,4.05
2019-02-18T08:51:13.938Z,4.14
2019-02-18T08:54:01.698Z,4.17
2019-02-18T08:56:28.955Z,4.25
2019-02-18T08:58:56.014Z,4.36
2019-02-18T09:01:23.067Z,4.45
2019-02-18T09:03:50.154Z,4.63
2019-02-18T09:06:17.210Z,4.86
2019-02-18T09:08:44.255Z,4.98
2019-02-18T09:11:12.456Z,5.13
2019-02-18T09:13:39.565Z,5.32
2019-02-18T09:16:06.634Z,5.49
2019-02-18T09:18:33.715Z,5.63
2019-02-18T09:21:00.866Z,5.74
2019-02-18T09:23:35.503Z,5.78
2019-02-18T09:29:43.482Z,6.00
2019-02-18T09:32:11.635Z,6.17
2019-02-18T09:34:38.799Z,6.18
2019-02-18T09:37:05.975Z,6.25
2019-02-18T09:40:28.196Z,6.41
2019-02-18T09:42:55.291Z,6.56
2019-02-18T09:45:22.368Z,6.69
2019-02-18T09:47:49.449Z,6.77
2019-02-18T09:50:16.522Z,6.86
2019-02-18T09:52:43.668Z,6.93
2019-02-18T09:55:12.743Z,7.00
2019-02-18T09:57:39.863Z,7.16
2019-02-18T10:00:07.352Z,7.33
2019-02-18T10:02:34.424Z,7.43
2019-02-18T10:05:01.600Z,7.58
2019-02-18T10:07:28.657Z,7.80
2019-02-18T10:09:56.090Z,7.95
2019-02-18T10:12:23.242Z,8.10
2019-02-18T10:14:50.302Z,8.08
2019-02-18T10:18:22.468Z,8.12
2019-02-18T10:24:50.296Z,8.63
2019-02-18T10:27:08.920Z,8.77
2019-02-18T10:29:35.989Z,8.86
2019-02-18T10:32:03.098Z,8.97
2019-02-18T10:34:30.168Z,9.14
2019-02-18T10:36:57.239Z,9.25
2019-02-18T10:39:24.336Z,9.46
2019-02-18T10:41:52.393Z,9.68
2019-02-18T10:44:19.453Z,9.87
2019-02-18T10:46:46.706Z,9.88
2019-02-18T10:49:19.801Z,9.96
2019-02-18T10:51:42.714Z,10.15
2019-02-18T10:54:10.115Z,10.07
2019-02-18T10:56:37.277Z,10.07
2019-02-18T10:59:04.349Z,10.26
2019-02-18T11:01:31.476Z,10.32
2019-02-18T11:03:58.529Z,10.20
2019-02-18T11:06:25.640Z,10.28
2019-02-18T11:08:52.818Z,10.41
2019-02-18T11:11:19.880Z,10.54
2019-02-18T11:13:47.002Z,10.57
2019-02-18T11:16:20.009Z,10.73
2019-02-18T11:18:47.083Z,10.65
2019-02-18T11:21:14.238Z,10.68
2019-02-18T11:23:41.340Z,10.94
2019-02-18T11:26:08.393Z,11.27
2019-02-18T11:28:35.610Z,11.44
2019-02-18T11:31:09.009Z,11.61
2019-02-18T11:33:36.068Z,11.70
2019-02-18T11:36:03.553Z,11.72
2019-02-18T11:38:30.645Z,11.61
2019-02-18T11:40:57.693Z,11.48
2019-02-18T11:43:25.872Z,11.50
2019-02-18T11:45:53.131Z,11.53
2019-02-18T11:48:20.198Z,11.63
2019-02-18T11:50:47.238Z,11.49
2019-02-18T11:53:14.337Z,11.54
2019-02-18T11:55:41.389Z,11.80
2019-02-18T11:58:08.461Z,11.85
2019-02-18T12:00:38.414Z,12.08
2019-02-18T12:03:11.628Z,12.34
2019-02-18T12:05:34.566Z,12.62
2019-02-18T12:08:01.968Z,12.61
2019-02-18T12:10:29.049Z,12.49
2019-02-18T12:16:12.937Z,12.40
2019-02-18T12:18:40.017Z,12.60
2019-02-18T12:21:07.089Z,12.96
2019-02-18T12:23:36.851Z,13.02
2019-02-18T12:26:03.912Z,12.88
2019-02-18T12:28:30.987Z,13.00
2019-02-18T12:30:58.197Z,13.19
2019-02-18T12:33:25.542Z,13.24
2019-02-18T12:35:52.734Z,13.22
2019-02-18T12:38:19.977Z,13.23
2019-02-18T12:40:47.040Z,13.20
2019-02-18T12:43:14.098Z,13.45
2019-02-18T12:45:41.166Z,13.86
2019-02-18T12:48:08.308Z,14.30
2019-02-18T12:50:35.696Z,14.60
2019-02-18T12:53:03.291Z,14.63
2019-02-18T12:55:30.458Z,14.60
2019-02-18T12:57:57.690Z,14.71
2019-02-18T13:00:24.876Z,14.74
2019-02-18T13:02:51.973Z,14.78
2019-02-18T13:05:20.047Z,14.79
2019-02-18T13:07:47.141Z,14.64
2019-02-18T13:10:15.392Z,15.08
2019-02-18T13:12:42.732Z,15.49
2019-02-18T13:15:10.805Z,15.74
2019-02-18T13:17:37.940Z,15.93
2019-02-18T13:20:07.106Z,16.36
2019-02-18T13:22:52.669Z,16.73
2019-02-18T13:25:19.729Z,16.93
2019-02-18T13:27:47.087Z,17.49
2019-02-18T13:30:14.805Z,17.85
2019-02-18T13:32:41.952Z,18.11
2019-02-18T13:35:09.040Z,18.24
2019-02-18T13:37:36.150Z,18.34
2019-02-18T13:40:04.159Z,18.34
2019-02-18T13:42:34.412Z,18.41
2019-02-18T13:45:02.019Z,18.37
2019-02-18T13:47:29.263Z,18.40
2019-02-18T13:49:56.304Z,18.54
2019-02-18T13:52:23.392Z,18.53
2019-02-18T13:55:27.863Z,18.48
2019-02-18T13:57:55.034Z,18.57
2019-02-18T14:00:22.087Z,18.61
2019-02-18T14:02:49.459Z,18.63
2019-02-18T14:05:17.364Z,18.66
2019-02-18T14:07:44.552Z,18.71
2019-02-18T14:10:12.002Z,18.67
2019-02-18T14:12:39.130Z,18.69
2019-02-18T14:15:06.510Z,18.66
2019-02-18T14:17:33.592Z,18.56
2019-02-18T14:20:00.815Z,18.51
2019-02-18T14:22:27.875Z,18.50
2019-02-18T14:25:31.300Z,18.38
2019-02-18T14:27:58.398Z,18.35
2019-02-18T14:30:25.461Z,18.46
2019-02-18T14:32:52.534Z,18.33
2019-02-18T14:35:19.586Z,18.16
2019-02-18T14:37:47.452Z,18.15
2019-02-18T14:40:15.671Z,18.09
2019-02-18T14:42:42.838Z,17.93
2019-02-18T14:45:10.097Z,17.90
2019-02-18T14:47:39.132Z,17.84
2019-02-18T14:50:06.497Z,17.74
2019-02-18T14:52:33.650Z,17.73
2019-02-18T14:55:00.972Z,17.64
2019-02-18T14:57:28.215Z,17.56
2019-02-18T14:59:58.098Z,17.47
2019-02-18T15:02:25.475Z,17.45
2019-02-18T15:04:52.517Z,17.23
2019-02-18T15:07:19.603Z,17.10
2019-02-18T15:09:46.683Z,16.98
2019-02-18T15:12:14.322Z,16.89
2019-02-18T15:14:42.738Z,16.74
2019-02-18T15:17:10.008Z,16.68
2019-02-18T15:19:37.468Z,16.60
2019-02-18T15:22:04.577Z,16.42
2019-02-18T15:24:31.789Z,16.39
2019-02-18T15:26:59.076Z,16.33
2019-02-18T15:29:38.414Z,16.17
2019-02-18T15:32:05.472Z,15.85
2019-02-18T15:34:32.554Z,15.65
2019-02-18T15:36:59.832Z,15.51
2019-02-18T15:39:26.967Z,15.31
2019-02-18T15:42:58.043Z,15.14
2019-02-18T15:45:25.151Z,15.02
2019-02-18T15:47:52.619Z,14.79
2019-02-18T15:50:20.011Z,14.76
2019-02-18T15:52:47.107Z,14.72
2019-02-18T15:55:14.306Z,14.68
2019-02-18T15:57:41.684Z,14.59
2019-02-18T16:00:12.768Z,14.44
2019-02-18T16:02:39.850Z,14.30
2019-02-18T16:05:07.254Z,14.18
2019-02-18T16:07:34.310Z,14.04
2019-02-18T16:10:01.492Z,13.91
2019-02-18T16:12:28.753Z,13.68
2019-02-18T16:15:00.771Z,13.43
2019-02-18T16:17:28.045Z,13.14
2019-02-18T16:19:55.179Z,12.93
2019-02-18T16:22:22.532Z,12.69
2019-02-18T16:24:49.666Z,12.52
2019-02-18T16:27:17.495Z,12.40
2019-02-18T16:29:44.549Z,12.27
2019-02-18T16:32:17.100Z,12.11
2019-02-18T16:34:44.192Z,11.96
2019-02-18T16:37:11.660Z,11.72
2019-02-18T16:39:38.831Z,11.49
2019-02-18T16:42:06.437Z,11.26
2019-02-18T16:44:33.502Z,10.98
2019-02-18T16:47:00.582Z,10.77
2019-02-18T16:49:27.628Z,10.57
2019-02-18T16:51:54.707Z,10.34
2019-02-18T16:54:22.227Z,10.10
2019-02-18T16:56:49.509Z,9.84
2019-02-18T16:59:16.570Z,9.56
2019-02-18T17:01:43.667Z,9.35
2019-02-18T17:04:10.733Z,9.14
2019-02-18T17:06:37.787Z,8.99
2019-02-18T17:09:10.555Z,8.80
2019-02-18T17:11:38.009Z,8.63
2019-02-18T17:14:05.162Z,8.52
2019-02-18T17:16:32.292Z,8.30
2019-02-18T17:18:59.365Z,8.08
2019-02-18T17:21:26.483Z,7.91
2019-02-18T17:23:53.644Z,7.81
2019-02-18T17:26:20.687Z,7.68
2019-02-18T17:28:47.789Z,7.57
2019-02-18T17:31:15.099Z,7.47
2019-02-18T17:33:42.205Z,7.36
2019-02-18T17:36:09.305Z,7.29
2019-02-18T17:38:36.388Z,7.17
2019-02-18T17:41:03.579Z,7.08
2019-02-18T17:43:30.660Z,7.00
2019-02-18T17:45:57.793Z,6.92
2019-02-18T17:48:25.419Z,6.86
2019-02-18T17:50:52.551Z,6.76
2019-02-18T17:53:19.785Z,6.65
2019-02-18T17:55:47.035Z,6.60
2019-02-18T17:58:14.209Z,6.48
2019-02-18T18:00:43.922Z,6.41
2019-02-18T18:03:30.402Z,6.30
2019-02-18T18:05:57.498Z,6.20
2019-02-18T18:08:24.585Z,6.10
2019-02-18T18:10:51.724Z,5.98
2019-02-18T18:13:24.967Z,5.99
2019-02-18T18:15:51.079Z,6.03
2019-02-18T18:18:18.594Z,6.06
2019-02-18T18:20:51.694Z,5.97
2019-02-18T18:23:18.877Z,5.84
2019-02-18T18:25:46.017Z,5.67
2019-02-18T18:28:13.190Z,5.55
2019-02-18T18:30:40.546Z,5.42
2019-02-18T18:33:07.667Z,5.31
2019-02-18T18:35:35.058Z,5.23
2019-02-18T18:38:02.250Z,5.20
2019-02-18T18:40:29.851Z,5.20
2019-02-18T18:42:56.955Z,5.22
2019-02-18T18:45:24.035Z,5.24
2019-02-18T18:47:51.302Z,5.27
2019-02-18T18:50:18.376Z,5.23
2019-02-18T18:52:45.643Z,5.30
2019-02-18T18:55:12.779Z,5.41
2019-02-18T18:57:39.876Z,5.55
2019-02-18T19:00:09.916Z,5.55
2019-02-18T19:02:37.034Z,5.55
2019-02-18T19:05:04.619Z,5.57
2019-02-18T19:07:31.837Z,5.58
2019-02-18T19:09:58.984Z,5.61
2019-02-18T19:16:05.766Z,5.70
2019-02-18T19:18:34.440Z,5.78
2019-02-18T19:21:01.528Z,6.07
2019-02-18T19:23:28.622Z,6.41
2019-02-18T19:25:55.828Z,6.83
2019-02-18T19:28:22.911Z,7.35
2019-02-18T19:30:50.095Z,7.81
2019-02-18T19:33:17.223Z,7.84
2019-02-18T19:35:44.505Z,7.87
2019-02-18T19:38:11.621Z,7.64
2019-02-18T19:40:38.754Z,7.48
2019-02-18T19:43:06.279Z,7.64
2019-02-18T19:45:33.353Z,7.89
2019-02-18T19:48:00.456Z,8.09
2019-02-18T19:50:27.650Z,8.28
2019-02-18T19:52:54.781Z,8.53
2019-02-18T19:55:22.657Z,8.76
2019-02-18T19:58:09.287Z,8.88
2019-02-18T20:00:37.902Z,8.89
2019-02-18T20:03:05.158Z,8.93
2019-02-18T20:05:32.365Z,9.03
2019-02-18T20:07:59.471Z,9.08
2019-02-18T20:10:26.638Z,9.10
2019-02-18T20:12:54.010Z,9.11
2019-02-18T20:15:22.117Z,9.10
2019-02-18T20:18:25.914Z,9.10
2019-02-18T20:20:53.318Z,9.04
2019-02-18T20:23:24.815Z,8.90
2019-02-18T20:25:52.005Z,8.89
2019-02-18T20:28:38.457Z,8.76
2019-02-18T20:31:05.601Z,8.70
2019-02-18T20:33:32.707Z,8.59
2019-02-18T20:36:01.120Z,8.52
2019-02-18T20:38:28.351Z,8.53
2019-02-18T20:40:55.391Z,8.50
2019-02-18T20:43:22.473Z,8.45
2019-02-18T20:45:49.763Z,8.45
2019-02-18T20:48:16.882Z,8.44
2019-02-18T20:50:43.955Z,8.44
2019-02-18T20:53:11.726Z,8.47
2019-02-18T20:55:38.868Z,8.49
2019-02-18T20:58:05.993Z,8.55
2019-02-18T21:00:33.612Z,8.56
2019-02-18T21:03:00.817Z,8.56
2019-02-18T21:05:27.901Z,8.54
2019-02-18T21:07:55.371Z,8.46
2019-02-18T21:10:24.189Z,8.40
2019-02-18T21:12:52.848Z,8.32
2019-02-18T21:15:20.024Z,8.25
2019-02-18T21:17:47.321Z,8.28
2019-02-18T21:20:14.705Z,8.35
2019-02-18T21:22:42.096Z,8.31
2019-02-18T21:25:09.279Z,8.26
2019-02-18T21:27:36.320Z,8.31
2019-02-18T21:30:03.795Z,8.30
2019-02-18T21:32:30.875Z,8.28
2019-02-18T21:34:58.036Z,8.19
2019-02-18T21:37:26.279Z,8.16
2019-02-18T21:39:53.361Z,8.13
2019-02-18T21:42:20.803Z,8.12
2019-02-18T21:44:48.017Z,8.19
2019-02-18T21:47:15.094Z,8.23
2019-02-18T21:50:13.430Z,8.20
2019-02-18T21:52:40.666Z,8.21
2019-02-18T21:55:07.842Z,8.21
2019-02-18T21:57:34.948Z,8.21
2019-02-18T22:00:03.807Z,8.21
2019-02-18T22:02:31.166Z,8.19
2019-02-18T22:05:52.427Z,8.18
2019-02-18T22:08:19.520Z,8.14
2019-02-18T22:10:46.622Z,8.10
2019-02-18T22:13:13.696Z,8.08
2019-02-18T22:15:40.831Z,8.08
2019-02-18T22:18:07.956Z,8.07
2019-02-18T22:20:35.043Z,8.03
2019-02-18T22:23:02.261Z,8.02
2019-02-18T22:25:31.466Z,8.03
2019-02-18T22:27:58.550Z,8.07
2019-02-18T22:30:25.683Z,8.06
2019-02-18T22:32:54.027Z,8.02
2019-02-18T22:35:21.147Z,8.00
2019-02-18T22:37:49.347Z,7.99
2019-02-18T22:40:16.525Z,7.95
2019-02-18T22:42:43.659Z,7.96
2019-02-18T22:45:11.042Z,7.95
2019-02-18T22:47:38.186Z,7.95
2019-02-18T22:50:06.004Z,7.97
2019-02-18T22:52:33.425Z,7.92
2019-02-18T22:55:00.501Z,7.94
2019-02-18T22:57:27.582Z,7.94
2019-02-18T22:59:54.649Z,7.86
2019-02-18T23:02:21.780Z,7.82
2019-02-18T23:04:48.935Z,7.77
2019-02-18T23:07:16.041Z,7.79
2019-02-18T23:09:43.435Z,7.80
2019-02-18T23:12:10.802Z,7.76
2019-02-18T23:14:37.882Z,7.67
2019-02-18T23:17:04.941Z,7.67
2019-02-18T23:19:31.991Z,7.64
2019-02-18T23:21:59.107Z,7.59
2019-02-18T23:24:26.146Z,7.58
2019-02-18T23:26:53.259Z,7.56
2019-02-18T23:29:20.357Z,7.52
2019-02-18T23:31:47.504Z,7.49
2019-02-18T23:34:14.690Z,7.40
2019-02-18T23:36:41.778Z,7.33
2019-02-18T23:39:08.848Z,7.30
2019-02-18T23:41:35.919Z,7.26
2019-02-18T23:44:03.005Z,7.25
2019-02-18T23:46:30.370Z,7.18
2019-02-18T23:48:57.463Z,7.14
2019-02-18T23:51:37.066Z,7.11
2019-02-18T23:54:04.164Z,7.08
2019-02-18T23:56:31.252Z,7.09
2019-02-18T23:58:58.323Z,7.17
